sensor_id;sensor_type;location;lat;lon;timestamp;P1;durP1;ratioP1;P2;durP2;ratioP2
59442;SDS011;45247;47.466;19.004;2023-09-19T00:01:03;16.08;;;6.35;;
59442;SDS011;45247;47.466;19.004;2023-09-19T00:03:34;13.77;;;6.13;;
59442;SDS011;45247;47.466;19.004;2023-09-19T00:06:06;13.77;;;5.57;;
59442;SDS011;45247;47.466;19.004;2023-09-19T00:08:34;16.67;;;6.35;;
59442;SDS011;45247;47.466;19.004;2023-09-19T00:11:02;15.00;;;6.15;;
59442;SDS011;45247;47.466;19.004;2023-09-19T00:13:30;10.27;;;5.93;;
59442;SDS011;45247;47.466;19.004;2023-09-19T00:15:58;14.10;;;5.90;;
59442;SDS011;45247;47.466;19.004;2023-09-19T00:18:26;13.35;;;5.40;;
59442;SDS011;45247;47.466;19.004;2023-09-19T00:20:56;16.25;;;6.95;;
59442;SDS011;45247;47.466;19.004;2023-09-19T00:23:26;12.68;;;5.70;;
59442;SDS011;45247;47.466;19.004;2023-09-19T00:25:54;10.48;;;5.60;;
59442;SDS011;45247;47.466;19.004;2023-09-19T00:28:25;10.60;;;5.78;;
59442;SDS011;45247;47.466;19.004;2023-09-19T00:30:53;20.50;;;6.70;;
59442;SDS011;45247;47.466;19.004;2023-09-19T00:33:22;11.27;;;6.63;;
59442;SDS011;45247;47.466;19.004;2023-09-19T00:35:51;12.00;;;6.65;;
59442;SDS011;45247;47.466;19.004;2023-09-19T00:38:19;17.23;;;8.18;;
59442;SDS011;45247;47.466;19.004;2023-09-19T00:40:50;16.05;;;6.90;;
59442;SDS011;45247;47.466;19.004;2023-09-19T00:43:18;12.85;;;6.65;;
59442;SDS011;45247;47.466;19.004;2023-09-19T00:45:48;15.75;;;6.13;;
59442;SDS011;45247;47.466;19.004;2023-09-19T00:48:16;16.48;;;6.97;;
59442;SDS011;45247;47.466;19.004;2023-09-19T00:50:46;17.38;;;7.00;;
59442;SDS011;45247;47.466;19.004;2023-09-19T00:53:15;17.48;;;7.50;;
59442;SDS011;45247;47.466;19.004;2023-09-19T00:55:45;16.40;;;6.82;;
59442;SDS011;45247;47.466;19.004;2023-09-19T00:58:14;16.73;;;7.00;;
59442;SDS011;45247;47.466;19.004;2023-09-19T01:00:44;14.90;;;7.68;;
59442;SDS011;45247;47.466;19.004;2023-09-19T01:03:12;12.18;;;6.78;;
59442;SDS011;45247;47.466;19.004;2023-09-19T01:05:41;13.65;;;7.38;;
59442;SDS011;45247;47.466;19.004;2023-09-19T01:08:10;10.55;;;7.10;;
59442;SDS011;45247;47.466;19.004;2023-09-19T01:10:38;11.35;;;6.70;;
59442;SDS011;45247;47.466;19.004;2023-09-19T01:13:09;14.77;;;6.85;;
59442;SDS011;45247;47.466;19.004;2023-09-19T01:15:44;12.00;;;7.13;;
59442;SDS011;45247;47.466;19.004;2023-09-19T01:18:16;10.30;;;6.32;;
59442;SDS011;45247;47.466;19.004;2023-09-19T01:20:53;16.48;;;7.15;;
59442;SDS011;45247;47.466;19.004;2023-09-19T01:23:23;11.40;;;6.05;;
59442;SDS011;45247;47.466;19.004;2023-09-19T01:26:05;16.63;;;7.55;;
59442;SDS011;45247;47.466;19.004;2023-09-19T01:31:22;10.30;;;6.25;;
59442;SDS011;45247;47.466;19.004;2023-09-19T01:33:58;11.27;;;7.70;;
59442;SDS011;45247;47.466;19.004;2023-09-19T01:36:31;17.67;;;7.43;;
59442;SDS011;45247;47.466;19.004;2023-09-19T01:39:03;10.93;;;7.45;;
59442;SDS011;45247;47.466;19.004;2023-09-19T01:41:53;12.02;;;7.13;;
59442;SDS011;45247;47.466;19.004;2023-09-19T01:44:25;10.70;;;7.03;;
59442;SDS011;45247;47.466;19.004;2023-09-19T01:47:04;11.70;;;7.30;;
59442;SDS011;45247;47.466;19.004;2023-09-19T01:49:37;14.15;;;7.85;;
59442;SDS011;45247;47.466;19.004;2023-09-19T01:52:11;13.93;;;8.18;;
59442;SDS011;45247;47.466;19.004;2023-09-19T01:54:46;12.65;;;7.88;;
59442;SDS011;45247;47.466;19.004;2023-09-19T01:59:59;18.45;;;8.38;;
59442;SDS011;45247;47.466;19.004;2023-09-19T02:02:30;19.95;;;8.73;;
59442;SDS011;45247;47.466;19.004;2023-09-19T02:05:04;12.65;;;8.18;;
59442;SDS011;45247;47.466;19.004;2023-09-19T02:07:32;17.23;;;8.38;;
59442;SDS011;45247;47.466;19.004;2023-09-19T02:10:02;14.85;;;8.88;;
59442;SDS011;45247;47.466;19.004;2023-09-19T02:12:31;14.55;;;8.60;;
59442;SDS011;45247;47.466;19.004;2023-09-19T02:15:02;15.15;;;8.57;;
59442;SDS011;45247;47.466;19.004;2023-09-19T02:17:34;25.17;;;9.52;;
59442;SDS011;45247;47.466;19.004;2023-09-19T02:20:03;14.23;;;8.43;;
59442;SDS011;45247;47.466;19.004;2023-09-19T02:22:37;14.05;;;9.15;;
59442;SDS011;45247;47.466;19.004;2023-09-19T02:25:06;13.82;;;8.93;;
59442;SDS011;45247;47.466;19.004;2023-09-19T02:27:34;13.05;;;8.32;;
59442;SDS011;45247;47.466;19.004;2023-09-19T02:30:03;16.25;;;9.23;;
59442;SDS011;45247;47.466;19.004;2023-09-19T02:32:31;13.10;;;8.32;;
59442;SDS011;45247;47.466;19.004;2023-09-19T02:35:04;12.85;;;8.77;;
59442;SDS011;45247;47.466;19.004;2023-09-19T02:37:32;12.05;;;8.07;;
59442;SDS011;45247;47.466;19.004;2023-09-19T02:40:01;16.63;;;9.63;;
59442;SDS011;45247;47.466;19.004;2023-09-19T02:42:46;19.05;;;9.25;;
59442;SDS011;45247;47.466;19.004;2023-09-19T02:45:15;20.13;;;10.18;;
59442;SDS011;45247;47.466;19.004;2023-09-19T02:47:45;12.77;;;8.57;;
59442;SDS011;45247;47.466;19.004;2023-09-19T02:50:14;14.48;;;8.02;;
59442;SDS011;45247;47.466;19.004;2023-09-19T02:52:43;15.48;;;9.55;;
59442;SDS011;45247;47.466;19.004;2023-09-19T02:55:12;21.50;;;10.02;;
59442;SDS011;45247;47.466;19.004;2023-09-19T02:57:45;15.13;;;8.80;;
59442;SDS011;45247;47.466;19.004;2023-09-19T03:00:14;17.98;;;9.35;;
59442;SDS011;45247;47.466;19.004;2023-09-19T03:02:42;19.73;;;9.75;;
59442;SDS011;45247;47.466;19.004;2023-09-19T03:05:11;15.63;;;8.90;;
59442;SDS011;45247;47.466;19.004;2023-09-19T03:07:40;21.08;;;10.48;;
59442;SDS011;45247;47.466;19.004;2023-09-19T03:10:09;21.45;;;9.50;;
59442;SDS011;45247;47.466;19.004;2023-09-19T03:12:37;23.00;;;10.02;;
59442;SDS011;45247;47.466;19.004;2023-09-19T03:15:06;13.48;;;8.98;;
59442;SDS011;45247;47.466;19.004;2023-09-19T03:17:36;15.25;;;8.80;;
59442;SDS011;45247;47.466;19.004;2023-09-19T03:20:04;18.23;;;9.75;;
59442;SDS011;45247;47.466;19.004;2023-09-19T03:22:35;23.17;;;9.70;;
59442;SDS011;45247;47.466;19.004;2023-09-19T03:25:05;14.82;;;9.43;;
59442;SDS011;45247;47.466;19.004;2023-09-19T03:27:34;16.52;;;8.98;;
59442;SDS011;45247;47.466;19.004;2023-09-19T03:30:02;18.73;;;9.20;;
59442;SDS011;45247;47.466;19.004;2023-09-19T03:32:34;17.27;;;8.95;;
59442;SDS011;45247;47.466;19.004;2023-09-19T03:35:02;17.30;;;9.15;;
59442;SDS011;45247;47.466;19.004;2023-09-19T03:37:31;18.80;;;9.82;;
59442;SDS011;45247;47.466;19.004;2023-09-19T03:40:00;28.33;;;10.20;;
59442;SDS011;45247;47.466;19.004;2023-09-19T03:42:33;16.25;;;9.27;;
59442;SDS011;45247;47.466;19.004;2023-09-19T03:45:02;16.58;;;9.07;;
59442;SDS011;45247;47.466;19.004;2023-09-19T03:47:32;20.55;;;10.43;;
59442;SDS011;45247;47.466;19.004;2023-09-19T03:50:00;19.80;;;10.27;;
59442;SDS011;45247;47.466;19.004;2023-09-19T03:52:28;17.48;;;10.27;;
59442;SDS011;45247;47.466;19.004;2023-09-19T03:54:56;18.45;;;10.38;;
59442;SDS011;45247;47.466;19.004;2023-09-19T03:57:24;19.13;;;9.95;;
59442;SDS011;45247;47.466;19.004;2023-09-19T03:59:53;20.77;;;9.50;;
59442;SDS011;45247;47.466;19.004;2023-09-19T04:02:22;14.35;;;9.00;;
59442;SDS011;45247;47.466;19.004;2023-09-19T04:04:51;19.90;;;10.55;;
59442;SDS011;45247;47.466;19.004;2023-09-19T04:07:18;20.02;;;11.13;;
59442;SDS011;45247;47.466;19.004;2023-09-19T04:09:49;15.13;;;10.05;;
59442;SDS011;45247;47.466;19.004;2023-09-19T04:12:19;25.88;;;10.85;;
59442;SDS011;45247;47.466;19.004;2023-09-19T04:14:47;18.02;;;10.10;;
59442;SDS011;45247;47.466;19.004;2023-09-19T04:17:17;28.77;;;11.60;;
59442;SDS011;45247;47.466;19.004;2023-09-19T04:19:45;14.43;;;9.77;;
59442;SDS011;45247;47.466;19.004;2023-09-19T04:22:13;20.33;;;10.93;;
59442;SDS011;45247;47.466;19.004;2023-09-19T04:24:41;16.55;;;9.60;;
59442;SDS011;45247;47.466;19.004;2023-09-19T04:27:09;15.23;;;9.68;;
59442;SDS011;45247;47.466;19.004;2023-09-19T04:29:39;16.85;;;9.80;;
59442;SDS011;45247;47.466;19.004;2023-09-19T04:32:08;14.82;;;9.30;;
59442;SDS011;45247;47.466;19.004;2023-09-19T04:34:37;15.27;;;10.00;;
59442;SDS011;45247;47.466;19.004;2023-09-19T04:37:05;21.30;;;9.50;;
59442;SDS011;45247;47.466;19.004;2023-09-19T04:39:33;21.65;;;9.65;;
59442;SDS011;45247;47.466;19.004;2023-09-19T04:42:01;18.65;;;8.75;;
59442;SDS011;45247;47.466;19.004;2023-09-19T04:44:31;15.95;;;8.90;;
59442;SDS011;45247;47.466;19.004;2023-09-19T04:46:59;14.13;;;7.60;;
59442;SDS011;45247;47.466;19.004;2023-09-19T04:49:27;15.30;;;6.32;;
59442;SDS011;45247;47.466;19.004;2023-09-19T04:51:56;12.70;;;4.30;;
59442;SDS011;45247;47.466;19.004;2023-09-19T04:54:24;8.82;;;2.40;;
59442;SDS011;45247;47.466;19.004;2023-09-19T04:56:53;7.88;;;2.60;;
59442;SDS011;45247;47.466;19.004;2023-09-19T04:59:21;5.00;;;1.70;;
59442;SDS011;45247;47.466;19.004;2023-09-19T05:01:49;4.45;;;1.60;;
59442;SDS011;45247;47.466;19.004;2023-09-19T05:04:17;4.03;;;1.63;;
59442;SDS011;45247;47.466;19.004;2023-09-19T05:06:45;5.55;;;1.70;;
59442;SDS011;45247;47.466;19.004;2023-09-19T05:09:15;4.68;;;1.38;;
59442;SDS011;45247;47.466;19.004;2023-09-19T05:11:46;5.10;;;1.92;;
59442;SDS011;45247;47.466;19.004;2023-09-19T05:14:14;2.28;;;1.38;;
59442;SDS011;45247;47.466;19.004;2023-09-19T05:16:42;2.63;;;1.17;;
59442;SDS011;45247;47.466;19.004;2023-09-19T05:19:10;2.35;;;1.02;;
59442;SDS011;45247;47.466;19.004;2023-09-19T05:21:39;3.78;;;0.88;;
59442;SDS011;45247;47.466;19.004;2023-09-19T05:24:07;5.47;;;1.20;;
59442;SDS011;45247;47.466;19.004;2023-09-19T05:26:38;5.57;;;0.98;;
59442;SDS011;45247;47.466;19.004;2023-09-19T05:29:06;2.63;;;1.23;;
59442;SDS011;45247;47.466;19.004;2023-09-19T05:31:34;1.40;;;0.82;;
59442;SDS011;45247;47.466;19.004;2023-09-19T05:34:07;5.15;;;1.20;;
59442;SDS011;45247;47.466;19.004;2023-09-19T05:36:36;1.42;;;0.80;;
59442;SDS011;45247;47.466;19.004;2023-09-19T05:39:06;2.88;;;1.05;;
59442;SDS011;45247;47.466;19.004;2023-09-19T05:41:35;3.13;;;1.13;;
59442;SDS011;45247;47.466;19.004;2023-09-19T05:44:08;3.70;;;0.95;;
59442;SDS011;45247;47.466;19.004;2023-09-19T05:46:36;7.10;;;1.27;;
59442;SDS011;45247;47.466;19.004;2023-09-19T05:49:04;5.65;;;1.10;;
59442;SDS011;45247;47.466;19.004;2023-09-19T05:51:32;3.63;;;1.10;;
59442;SDS011;45247;47.466;19.004;2023-09-19T05:53:59;3.45;;;0.90;;
59442;SDS011;45247;47.466;19.004;2023-09-19T05:56:27;4.22;;;1.05;;
59442;SDS011;45247;47.466;19.004;2023-09-19T05:58:55;4.47;;;0.70;;
59442;SDS011;45247;47.466;19.004;2023-09-19T06:01:24;3.70;;;0.90;;
59442;SDS011;45247;47.466;19.004;2023-09-19T06:03:53;4.70;;;0.90;;
59442;SDS011;45247;47.466;19.004;2023-09-19T06:06:21;3.22;;;1.10;;
59442;SDS011;45247;47.466;19.004;2023-09-19T06:08:50;3.00;;;1.30;;
59442;SDS011;45247;47.466;19.004;2023-09-19T06:11:18;4.47;;;0.70;;
59442;SDS011;45247;47.466;19.004;2023-09-19T06:13:47;2.15;;;1.02;;
59442;SDS011;45247;47.466;19.004;2023-09-19T06:16:15;2.10;;;1.05;;
59442;SDS011;45247;47.466;19.004;2023-09-19T06:18:47;4.38;;;1.17;;
59442;SDS011;45247;47.466;19.004;2023-09-19T06:21:16;2.30;;;1.25;;
59442;SDS011;45247;47.466;19.004;2023-09-19T06:23:44;2.38;;;0.80;;
59442;SDS011;45247;47.466;19.004;2023-09-19T06:26:12;1.98;;;0.80;;
59442;SDS011;45247;47.466;19.004;2023-09-19T06:28:40;3.72;;;0.90;;
59442;SDS011;45247;47.466;19.004;2023-09-19T06:31:09;2.22;;;1.08;;
59442;SDS011;45247;47.466;19.004;2023-09-19T06:33:37;2.25;;;1.00;;
59442;SDS011;45247;47.466;19.004;2023-09-19T06:36:07;3.13;;;0.90;;
59442;SDS011;45247;47.466;19.004;2023-09-19T06:38:35;3.45;;;0.93;;
59442;SDS011;45247;47.466;19.004;2023-09-19T06:41:05;2.42;;;0.90;;
59442;SDS011;45247;47.466;19.004;2023-09-19T06:43:33;2.75;;;1.00;;
59442;SDS011;45247;47.466;19.004;2023-09-19T06:46:02;3.08;;;1.15;;
59442;SDS011;45247;47.466;19.004;2023-09-19T06:48:30;5.10;;;1.27;;
59442;SDS011;45247;47.466;19.004;2023-09-19T06:50:59;1.83;;;1.00;;
59442;SDS011;45247;47.466;19.004;2023-09-19T06:53:32;1.85;;;0.80;;
59442;SDS011;45247;47.466;19.004;2023-09-19T06:56:02;4.78;;;0.85;;
59442;SDS011;45247;47.466;19.004;2023-09-19T06:58:30;1.95;;;1.10;;
59442;SDS011;45247;47.466;19.004;2023-09-19T07:00:59;1.00;;;0.70;;
59442;SDS011;45247;47.466;19.004;2023-09-19T07:03:27;1.17;;;0.85;;
59442;SDS011;45247;47.466;19.004;2023-09-19T07:05:55;1.63;;;0.75;;
59442;SDS011;45247;47.466;19.004;2023-09-19T07:08:25;2.67;;;0.82;;
59442;SDS011;45247;47.466;19.004;2023-09-19T07:10:55;3.00;;;1.17;;
59442;SDS011;45247;47.466;19.004;2023-09-19T07:13:23;1.85;;;0.80;;
59442;SDS011;45247;47.466;19.004;2023-09-19T07:15:52;1.33;;;0.90;;
59442;SDS011;45247;47.466;19.004;2023-09-19T07:18:20;1.92;;;0.85;;
59442;SDS011;45247;47.466;19.004;2023-09-19T07:20:48;7.43;;;0.98;;
59442;SDS011;45247;47.466;19.004;2023-09-19T07:23:17;1.25;;;0.73;;
59442;SDS011;45247;47.466;19.004;2023-09-19T07:25:47;2.78;;;0.90;;
59442;SDS011;45247;47.466;19.004;2023-09-19T07:28:17;1.63;;;1.27;;
59442;SDS011;45247;47.466;19.004;2023-09-19T07:30:45;2.80;;;1.25;;
59442;SDS011;45247;47.466;19.004;2023-09-19T07:33:13;2.28;;;0.90;;
59442;SDS011;45247;47.466;19.004;2023-09-19T07:35:44;2.25;;;0.90;;
59442;SDS011;45247;47.466;19.004;2023-09-19T07:38:12;2.42;;;1.00;;
59442;SDS011;45247;47.466;19.004;2023-09-19T07:40:40;2.75;;;1.10;;
59442;SDS011;45247;47.466;19.004;2023-09-19T07:43:08;5.30;;;1.02;;
59442;SDS011;45247;47.466;19.004;2023-09-19T07:45:37;1.73;;;1.20;;
59442;SDS011;45247;47.466;19.004;2023-09-19T07:48:05;2.25;;;1.15;;
59442;SDS011;45247;47.466;19.004;2023-09-19T07:50:41;2.78;;;0.95;;
59442;SDS011;45247;47.466;19.004;2023-09-19T07:53:10;2.40;;;1.00;;
59442;SDS011;45247;47.466;19.004;2023-09-19T07:55:40;3.58;;;1.10;;
59442;SDS011;45247;47.466;19.004;2023-09-19T07:58:09;4.47;;;1.30;;
59442;SDS011;45247;47.466;19.004;2023-09-19T08:00:38;2.13;;;1.10;;
59442;SDS011;45247;47.466;19.004;2023-09-19T08:03:06;3.10;;;1.15;;
59442;SDS011;45247;47.466;19.004;2023-09-19T08:05:43;1.95;;;1.23;;
59442;SDS011;45247;47.466;19.004;2023-09-19T08:08:11;2.15;;;1.33;;
59442;SDS011;45247;47.466;19.004;2023-09-19T08:10:42;4.15;;;1.38;;
59442;SDS011;45247;47.466;19.004;2023-09-19T08:13:12;1.90;;;1.10;;
59442;SDS011;45247;47.466;19.004;2023-09-19T08:15:44;4.70;;;1.27;;
59442;SDS011;45247;47.466;19.004;2023-09-19T08:18:12;2.90;;;1.38;;
59442;SDS011;45247;47.466;19.004;2023-09-19T08:20:40;4.65;;;1.20;;
59442;SDS011;45247;47.466;19.004;2023-09-19T08:23:09;3.70;;;1.45;;
59442;SDS011;45247;47.466;19.004;2023-09-19T08:25:36;5.60;;;2.08;;
59442;SDS011;45247;47.466;19.004;2023-09-19T08:28:06;2.80;;;1.20;;
59442;SDS011;45247;47.466;19.004;2023-09-19T08:30:38;2.70;;;1.48;;
59442;SDS011;45247;47.466;19.004;2023-09-19T08:33:08;3.63;;;1.25;;
59442;SDS011;45247;47.466;19.004;2023-09-19T08:35:37;4.68;;;1.20;;
59442;SDS011;45247;47.466;19.004;2023-09-19T08:38:06;14.70;;;1.60;;
59442;SDS011;45247;47.466;19.004;2023-09-19T08:40:36;2.08;;;1.20;;
59442;SDS011;45247;47.466;19.004;2023-09-19T08:43:06;2.67;;;1.30;;
59442;SDS011;45247;47.466;19.004;2023-09-19T08:45:34;4.07;;;1.15;;
59442;SDS011;45247;47.466;19.004;2023-09-19T08:48:08;3.97;;;1.40;;
59442;SDS011;45247;47.466;19.004;2023-09-19T08:50:47;4.55;;;1.50;;
59442;SDS011;45247;47.466;19.004;2023-09-19T08:53:19;3.40;;;1.27;;
59442;SDS011;45247;47.466;19.004;2023-09-19T08:55:49;2.80;;;1.00;;
59442;SDS011;45247;47.466;19.004;2023-09-19T08:58:20;6.72;;;1.73;;
59442;SDS011;45247;47.466;19.004;2023-09-19T09:00:52;3.15;;;1.83;;
59442;SDS011;45247;47.466;19.004;2023-09-19T09:03:20;3.75;;;2.05;;
59442;SDS011;45247;47.466;19.004;2023-09-19T09:05:50;3.38;;;1.70;;
59442;SDS011;45247;47.466;19.004;2023-09-19T09:08:19;7.80;;;2.60;;
59442;SDS011;45247;47.466;19.004;2023-09-19T09:10:48;5.40;;;2.13;;
59442;SDS011;45247;47.466;19.004;2023-09-19T09:13:16;4.20;;;1.77;;
59442;SDS011;45247;47.466;19.004;2023-09-19T09:15:45;3.05;;;1.73;;
59442;SDS011;45247;47.466;19.004;2023-09-19T09:18:13;4.85;;;1.75;;
59442;SDS011;45247;47.466;19.004;2023-09-19T09:20:42;6.97;;;2.38;;
59442;SDS011;45247;47.466;19.004;2023-09-19T09:23:12;4.47;;;1.70;;
59442;SDS011;45247;47.466;19.004;2023-09-19T09:25:47;5.30;;;2.13;;
59442;SDS011;45247;47.466;19.004;2023-09-19T09:28:19;3.20;;;1.60;;
59442;SDS011;45247;47.466;19.004;2023-09-19T09:30:47;4.68;;;2.05;;
59442;SDS011;45247;47.466;19.004;2023-09-19T09:33:16;2.75;;;1.60;;
59442;SDS011;45247;47.466;19.004;2023-09-19T09:35:51;2.22;;;1.58;;
59442;SDS011;45247;47.466;19.004;2023-09-19T09:38:25;5.40;;;2.03;;
59442;SDS011;45247;47.466;19.004;2023-09-19T09:40:54;5.57;;;1.60;;
59442;SDS011;45247;47.466;19.004;2023-09-19T09:43:29;3.75;;;1.63;;
59442;SDS011;45247;47.466;19.004;2023-09-19T09:46:08;3.78;;;1.42;;
59442;SDS011;45247;47.466;19.004;2023-09-19T09:48:58;3.88;;;1.52;;
59442;SDS011;45247;47.466;19.004;2023-09-19T09:51:44;5.88;;;1.85;;
59442;SDS011;45247;47.466;19.004;2023-09-19T09:54:16;4.65;;;2.00;;
59442;SDS011;45247;47.466;19.004;2023-09-19T09:56:52;3.65;;;1.83;;
59442;SDS011;45247;47.466;19.004;2023-09-19T09:59:21;2.88;;;1.80;;
59442;SDS011;45247;47.466;19.004;2023-09-19T10:01:50;3.47;;;1.70;;
59442;SDS011;45247;47.466;19.004;2023-09-19T10:04:29;2.88;;;1.83;;
59442;SDS011;45247;47.466;19.004;2023-09-19T10:07:03;4.55;;;2.17;;
59442;SDS011;45247;47.466;19.004;2023-09-19T10:09:46;5.88;;;2.55;;
59442;SDS011;45247;47.466;19.004;2023-09-19T10:12:15;4.85;;;2.60;;
59442;SDS011;45247;47.466;19.004;2023-09-19T10:14:44;4.78;;;2.35;;
59442;SDS011;45247;47.466;19.004;2023-09-19T10:17:13;8.18;;;2.97;;
59442;SDS011;45247;47.466;19.004;2023-09-19T10:19:45;5.90;;;2.42;;
59442;SDS011;45247;47.466;19.004;2023-09-19T10:22:14;3.47;;;2.72;;
59442;SDS011;45247;47.466;19.004;2023-09-19T10:24:43;6.43;;;2.72;;
59442;SDS011;45247;47.466;19.004;2023-09-19T10:27:29;5.32;;;2.90;;
59442;SDS011;45247;47.466;19.004;2023-09-19T10:30:05;7.75;;;3.22;;
59442;SDS011;45247;47.466;19.004;2023-09-19T10:32:34;5.85;;;3.35;;
59442;SDS011;45247;47.466;19.004;2023-09-19T10:35:02;8.75;;;3.83;;
59442;SDS011;45247;47.466;19.004;2023-09-19T10:37:33;4.47;;;3.42;;
59442;SDS011;45247;47.466;19.004;2023-09-19T10:40:02;3.67;;;3.00;;
59442;SDS011;45247;47.466;19.004;2023-09-19T10:42:37;6.28;;;2.88;;
59442;SDS011;45247;47.466;19.004;2023-09-19T10:45:06;5.68;;;3.33;;
59442;SDS011;45247;47.466;19.004;2023-09-19T10:47:39;4.72;;;3.22;;
59442;SDS011;45247;47.466;19.004;2023-09-19T10:50:07;9.63;;;3.05;;
59442;SDS011;45247;47.466;19.004;2023-09-19T10:52:40;4.55;;;3.40;;
59442;SDS011;45247;47.466;19.004;2023-09-19T10:55:09;8.48;;;3.10;;
59442;SDS011;45247;47.466;19.004;2023-09-19T10:57:39;6.10;;;3.53;;
59442;SDS011;45247;47.466;19.004;2023-09-19T11:00:13;5.10;;;3.50;;
59442;SDS011;45247;47.466;19.004;2023-09-19T11:05:38;5.95;;;3.85;;
59442;SDS011;45247;47.466;19.004;2023-09-19T11:08:07;6.68;;;3.50;;
59442;SDS011;45247;47.466;19.004;2023-09-19T11:13:26;7.93;;;3.03;;
59442;SDS011;45247;47.466;19.004;2023-09-19T11:18:53;4.32;;;2.40;;
59442;SDS011;45247;47.466;19.004;2023-09-19T11:24:29;3.47;;;1.70;;
59442;SDS011;45247;47.466;19.004;2023-09-19T11:27:11;4.35;;;1.70;;
59442;SDS011;45247;47.466;19.004;2023-09-19T11:29:42;1.58;;;1.20;;
59442;SDS011;45247;47.466;19.004;2023-09-19T11:32:10;4.13;;;1.50;;
59442;SDS011;45247;47.466;19.004;2023-09-19T11:34:43;3.20;;;1.27;;
59442;SDS011;45247;47.466;19.004;2023-09-19T11:40:05;11.38;;;2.92;;
59442;SDS011;45247;47.466;19.004;2023-09-19T11:42:42;2.10;;;1.10;;
59442;SDS011;45247;47.466;19.004;2023-09-19T11:47:59;2.40;;;1.38;;
59442;SDS011;45247;47.466;19.004;2023-09-19T11:50:27;4.45;;;1.58;;
59442;SDS011;45247;47.466;19.004;2023-09-19T11:52:55;1.60;;;1.10;;
59442;SDS011;45247;47.466;19.004;2023-09-19T11:55:23;2.47;;;1.20;;
59442;SDS011;45247;47.466;19.004;2023-09-19T11:57:54;4.57;;;1.48;;
59442;SDS011;45247;47.466;19.004;2023-09-19T12:00:22;4.68;;;1.30;;
59442;SDS011;45247;47.466;19.004;2023-09-19T12:02:50;2.08;;;1.40;;
59442;SDS011;45247;47.466;19.004;2023-09-19T12:05:29;2.78;;;1.35;;
59442;SDS011;45247;47.466;19.004;2023-09-19T12:07:57;2.85;;;1.40;;
59442;SDS011;45247;47.466;19.004;2023-09-19T12:10:27;5.80;;;1.70;;
59442;SDS011;45247;47.466;19.004;2023-09-19T12:12:55;4.57;;;1.70;;
59442;SDS011;45247;47.466;19.004;2023-09-19T12:15:23;5.13;;;1.70;;
59442;SDS011;45247;47.466;19.004;2023-09-19T12:17:55;2.78;;;1.40;;
59442;SDS011;45247;47.466;19.004;2023-09-19T12:20:23;5.97;;;2.05;;
59442;SDS011;45247;47.466;19.004;2023-09-19T12:22:52;3.28;;;1.70;;
59442;SDS011;45247;47.466;19.004;2023-09-19T12:25:20;4.20;;;1.73;;
59442;SDS011;45247;47.466;19.004;2023-09-19T12:27:48;7.18;;;1.80;;
59442;SDS011;45247;47.466;19.004;2023-09-19T12:30:19;2.47;;;1.90;;
59442;SDS011;45247;47.466;19.004;2023-09-19T12:32:54;2.78;;;1.58;;
59442;SDS011;45247;47.466;19.004;2023-09-19T12:35:28;3.78;;;1.58;;
59442;SDS011;45247;47.466;19.004;2023-09-19T12:37:58;7.32;;;1.88;;
59442;SDS011;45247;47.466;19.004;2023-09-19T12:40:26;5.45;;;1.80;;
59442;SDS011;45247;47.466;19.004;2023-09-19T12:42:56;8.63;;;2.15;;
59442;SDS011;45247;47.466;19.004;2023-09-19T12:45:25;6.03;;;1.50;;
59442;SDS011;45247;47.466;19.004;2023-09-19T12:53:28;4.97;;;1.80;;
59442;SDS011;45247;47.466;19.004;2023-09-19T12:55:59;4.35;;;1.60;;
59442;SDS011;45247;47.466;19.004;2023-09-19T12:58:27;4.93;;;1.73;;
59442;SDS011;45247;47.466;19.004;2023-09-19T13:00:59;4.40;;;1.70;;
59442;SDS011;45247;47.466;19.004;2023-09-19T13:03:28;6.53;;;1.48;;
59442;SDS011;45247;47.466;19.004;2023-09-19T13:05:59;4.13;;;1.80;;
59442;SDS011;45247;47.466;19.004;2023-09-19T13:08:30;3.70;;;1.38;;
59442;SDS011;45247;47.466;19.004;2023-09-19T13:11:03;5.07;;;1.55;;
59442;SDS011;45247;47.466;19.004;2023-09-19T13:13:33;6.40;;;1.85;;
59442;SDS011;45247;47.466;19.004;2023-09-19T13:16:03;4.72;;;1.75;;
59442;SDS011;45247;47.466;19.004;2023-09-19T13:21:29;4.70;;;1.80;;
59442;SDS011;45247;47.466;19.004;2023-09-19T13:24:20;6.10;;;1.63;;
59442;SDS011;45247;47.466;19.004;2023-09-19T13:26:49;7.07;;;1.70;;
59442;SDS011;45247;47.466;19.004;2023-09-19T13:29:17;4.68;;;1.90;;
59442;SDS011;45247;47.466;19.004;2023-09-19T13:31:46;3.40;;;1.65;;
59442;SDS011;45247;47.466;19.004;2023-09-19T13:34:14;7.78;;;2.00;;
59442;SDS011;45247;47.466;19.004;2023-09-19T13:36:44;4.13;;;1.65;;
59442;SDS011;45247;47.466;19.004;2023-09-19T13:39:13;5.75;;;2.03;;
59442;SDS011;45247;47.466;19.004;2023-09-19T13:41:43;5.88;;;1.60;;
59442;SDS011;45247;47.466;19.004;2023-09-19T13:44:11;4.10;;;1.90;;
59442;SDS011;45247;47.466;19.004;2023-09-19T13:46:40;4.35;;;1.70;;
59442;SDS011;45247;47.466;19.004;2023-09-19T13:49:12;5.57;;;1.70;;
59442;SDS011;45247;47.466;19.004;2023-09-19T13:51:40;2.65;;;1.63;;
59442;SDS011;45247;47.466;19.004;2023-09-19T13:54:11;2.95;;;1.80;;
59442;SDS011;45247;47.466;19.004;2023-09-19T13:56:39;4.00;;;1.73;;
59442;SDS011;45247;47.466;19.004;2023-09-19T13:59:08;2.28;;;1.40;;
59442;SDS011;45247;47.466;19.004;2023-09-19T14:01:36;5.35;;;2.10;;
59442;SDS011;45247;47.466;19.004;2023-09-19T14:04:05;4.18;;;1.90;;
59442;SDS011;45247;47.466;19.004;2023-09-19T14:06:33;3.40;;;1.67;;
59442;SDS011;45247;47.466;19.004;2023-09-19T14:09:01;6.10;;;1.88;;
59442;SDS011;45247;47.466;19.004;2023-09-19T14:11:30;4.45;;;1.50;;
59442;SDS011;45247;47.466;19.004;2023-09-19T14:13:58;7.80;;;2.15;;
59442;SDS011;45247;47.466;19.004;2023-09-19T14:16:28;3.83;;;1.70;;
59442;SDS011;45247;47.466;19.004;2023-09-19T14:18:57;4.80;;;1.80;;
59442;SDS011;45247;47.466;19.004;2023-09-19T14:21:26;4.50;;;1.65;;
59442;SDS011;45247;47.466;19.004;2023-09-19T14:23:54;4.45;;;1.95;;
59442;SDS011;45247;47.466;19.004;2023-09-19T14:26:22;3.60;;;1.63;;
59442;SDS011;45247;47.466;19.004;2023-09-19T14:28:50;5.25;;;1.90;;
59442;SDS011;45247;47.466;19.004;2023-09-19T14:31:18;4.15;;;1.90;;
59442;SDS011;45247;47.466;19.004;2023-09-19T14:33:54;3.80;;;1.80;;
59442;SDS011;45247;47.466;19.004;2023-09-19T14:36:23;4.72;;;2.00;;
59442;SDS011;45247;47.466;19.004;2023-09-19T14:38:52;3.80;;;1.58;;
59442;SDS011;45247;47.466;19.004;2023-09-19T14:41:21;10.50;;;1.90;;
59442;SDS011;45247;47.466;19.004;2023-09-19T14:43:49;5.80;;;2.00;;
59442;SDS011;45247;47.466;19.004;2023-09-19T14:46:17;7.13;;;2.00;;
59442;SDS011;45247;47.466;19.004;2023-09-19T14:48:45;3.22;;;1.60;;
59442;SDS011;45247;47.466;19.004;2023-09-19T14:51:16;4.38;;;1.92;;
59442;SDS011;45247;47.466;19.004;2023-09-19T14:53:45;4.43;;;1.73;;
59442;SDS011;45247;47.466;19.004;2023-09-19T14:56:13;4.80;;;2.20;;
59442;SDS011;45247;47.466;19.004;2023-09-19T14:58:47;3.55;;;1.30;;
59442;SDS011;45247;47.466;19.004;2023-09-19T15:01:16;2.58;;;1.48;;
59442;SDS011;45247;47.466;19.004;2023-09-19T15:03:44;5.47;;;1.70;;
59442;SDS011;45247;47.466;19.004;2023-09-19T15:06:13;3.72;;;1.67;;
59442;SDS011;45247;47.466;19.004;2023-09-19T15:08:45;3.63;;;1.50;;
59442;SDS011;45247;47.466;19.004;2023-09-19T15:11:14;3.60;;;1.58;;
59442;SDS011;45247;47.466;19.004;2023-09-19T15:13:44;5.60;;;1.50;;
59442;SDS011;45247;47.466;19.004;2023-09-19T15:16:12;4.28;;;1.48;;